createdAt,value
2022-07-31T00:02:28.618Z,20.30
2022-07-31T00:05:15.013Z,20.60
2022-07-31T00:08:02.057Z,20.30
2022-07-31T00:10:48.578Z,20.00
2022-07-31T00:13:57.216Z,19.90
2022-07-31T00:16:43.339Z,20.00
2022-07-31T00:19:30.317Z,20.00
2022-07-31T00:22:17.083Z,20.10
2022-07-31T00:25:04.132Z,20.10
2022-07-31T00:27:50.930Z,20.00
2022-07-31T00:30:38.793Z,19.90
2022-07-31T00:33:25.682Z,19.70
2022-07-31T00:36:12.544Z,19.70
2022-07-31T00:38:59.040Z,19.60
2022-07-31T00:41:47.720Z,19.40
2022-07-31T00:44:35.138Z,19.50
2022-07-31T00:47:27.234Z,19.60
2022-07-31T00:50:14.363Z,19.40
2022-07-31T00:53:02.173Z,19.50
2022-07-31T00:55:51.464Z,19.50
2022-07-31T00:58:38.809Z,19.60
2022-07-31T01:01:25.791Z,19.70
2022-07-31T01:04:16.358Z,19.60
2022-07-31T01:07:03.300Z,19.10
2022-07-31T01:09:53.653Z,18.90
2022-07-31T01:12:53.771Z,18.60
2022-07-31T01:15:43.017Z,18.70
2022-07-31T01:18:34.081Z,18.50
2022-07-31T01:21:40.738Z,18.40
2022-07-31T01:24:43.519Z,18.20
2022-07-31T01:27:59.671Z,18.20
2022-07-31T01:31:05.318Z,18.30
2022-07-31T01:34:08.337Z,18.20
2022-07-31T01:37:02.021Z,18.30
2022-07-31T01:39:58.530Z,18.50
2022-07-31T01:42:50.476Z,18.50
2022-07-31T01:45:40.877Z,18.20
2022-07-31T01:48:33.783Z,18.40
2022-07-31T01:51:23.908Z,18.50
2022-07-31T01:54:12.722Z,18.60
2022-07-31T01:57:00.446Z,18.30
2022-07-31T01:59:49.893Z,18.30
2022-07-31T02:03:09.241Z,18.30
2022-07-31T02:06:01.021Z,18.30
2022-07-31T02:08:53.104Z,18.40
2022-07-31T02:11:53.334Z,18.50
2022-07-31T02:14:42.889Z,18.70
2022-07-31T02:17:30.446Z,18.80
2022-07-31T02:20:38.145Z,18.90
2022-07-31T02:23:26.036Z,19.10
2022-07-31T02:26:16.496Z,19.10
2022-07-31T02:29:04.858Z,19.10
2022-07-31T02:32:02.982Z,18.90
2022-07-31T02:34:53.035Z,18.70
2022-07-31T02:37:41.062Z,18.70
2022-07-31T02:40:29.590Z,18.80
2022-07-31T02:43:17.018Z,18.80
2022-07-31T02:46:05.558Z,18.90
2022-07-31T02:48:53.191Z,18.90
2022-07-31T02:51:43.679Z,19.00
2022-07-31T02:54:31.036Z,19.10
2022-07-31T02:57:19.915Z,18.80
2022-07-31T03:00:22.581Z,18.50
2022-07-31T03:03:11.512Z,18.30
2022-07-31T03:06:01.076Z,18.10
2022-07-31T03:08:48.324Z,18.20
2022-07-31T03:11:38.837Z,18.20
2022-07-31T03:14:32.761Z,18.10
2022-07-31T03:17:20.480Z,18.00
2022-07-31T03:20:08.564Z,18.10
2022-07-31T03:22:55.545Z,18.10
2022-07-31T03:25:43.142Z,18.20
2022-07-31T03:28:30.229Z,18.30
2022-07-31T03:31:18.088Z,18.40
2022-07-31T03:34:05.052Z,18.40
2022-07-31T03:36:51.983Z,18.40
2022-07-31T03:39:38.905Z,18.60
2022-07-31T03:42:30.542Z,18.60
2022-07-31T03:45:18.073Z,18.60
2022-07-31T03:48:08.461Z,18.40
2022-07-31T03:50:55.657Z,18.50
2022-07-31T03:53:43.430Z,18.50
2022-07-31T03:56:49.424Z,18.40
2022-07-31T03:59:40.471Z,18.50
2022-07-31T04:02:35.042Z,18.40
2022-07-31T04:05:45.986Z,18.30
2022-07-31T04:08:34.212Z,18.50
2022-07-31T04:11:20.975Z,18.40
2022-07-31T04:14:07.882Z,18.40
2022-07-31T04:16:54.978Z,18.50
2022-07-31T04:19:43.533Z,18.60
2022-07-31T04:22:31.713Z,18.60
2022-07-31T04:25:19.358Z,18.70
2022-07-31T04:28:11.999Z,18.70
2022-07-31T04:30:59.087Z,18.20
2022-07-31T04:33:46.450Z,18.00
2022-07-31T04:36:36.527Z,18.00
2022-07-31T04:39:24.790Z,18.20
2022-07-31T04:42:12.838Z,18.40
2022-07-31T04:44:59.648Z,18.30
2022-07-31T04:47:46.365Z,18.40
2022-07-31T04:50:33.385Z,18.20
2022-07-31T04:53:20.877Z,18.10
2022-07-31T04:56:27.253Z,18.30
2022-07-31T04:59:15.340Z,18.40
2022-07-31T05:02:05.591Z,18.70
2022-07-31T05:04:56.521Z,18.70
2022-07-31T05:07:43.936Z,18.90
2022-07-31T05:10:54.922Z,19.00
2022-07-31T05:13:45.920Z,19.10
2022-07-31T05:16:33.606Z,19.20
2022-07-31T05:19:20.706Z,19.30
2022-07-31T05:22:26.157Z,19.50
2022-07-31T05:25:30.888Z,19.70
2022-07-31T05:28:17.815Z,19.80
2022-07-31T05:31:19.715Z,19.90
2022-07-31T05:34:07.596Z,20.00
2022-07-31T05:36:55.146Z,20.00
2022-07-31T05:39:43.222Z,20.10
2022-07-31T05:42:48.658Z,20.10
2022-07-31T05:45:51.153Z,20.10
2022-07-31T05:48:38.823Z,20.00
2022-07-31T05:51:25.156Z,20.00
2022-07-31T05:54:12.059Z,20.00
2022-07-31T05:57:33.465Z,20.10
2022-07-31T06:00:21.896Z,20.30
2022-07-31T06:03:10.751Z,20.20
2022-07-31T06:06:37.234Z,20.30
2022-07-31T06:09:24.210Z,20.20
2022-07-31T06:12:13.502Z,20.50
2022-07-31T06:15:01.048Z,20.60
2022-07-31T06:17:52.685Z,20.60
2022-07-31T06:20:44.557Z,20.40
2022-07-31T06:23:32.568Z,20.40
2022-07-31T06:26:42.105Z,20.50
2022-07-31T06:29:42.200Z,20.60
2022-07-31T06:32:29.984Z,20.50
2022-07-31T06:35:16.911Z,20.40
2022-07-31T06:38:26.158Z,20.40
2022-07-31T06:41:51.008Z,20.50
2022-07-31T06:44:50.173Z,20.50
2022-07-31T06:47:49.461Z,20.60
2022-07-31T06:51:29.616Z,20.60
2022-07-31T06:54:10.419Z,20.80
2022-07-31T06:56:58.897Z,21.10
2022-07-31T06:59:45.554Z,21.40
2022-07-31T07:02:32.523Z,21.80
2022-07-31T07:05:20.844Z,22.00
2022-07-31T07:08:10.532Z,22.10
2022-07-31T07:10:57.387Z,22.40
2022-07-31T07:13:52.667Z,22.60
2022-07-31T07:16:39.555Z,22.80
2022-07-31T07:19:26.644Z,22.90
2022-07-31T07:22:13.385Z,23.00
2022-07-31T07:25:01.240Z,23.10
2022-07-31T07:28:42.190Z,23.30
2022-07-31T07:45:06.506Z,25.00
2022-07-31T07:48:05.314Z,26.10
2022-07-31T07:51:03.886Z,26.60
2022-07-31T08:12:02.421Z,29.90
2022-07-31T08:15:15.342Z,30.50
2022-07-31T08:18:29.943Z,30.90
2022-07-31T08:21:16.673Z,31.70
2022-07-31T08:24:03.750Z,32.30
2022-07-31T08:27:16.010Z,32.70
2022-07-31T08:30:03.206Z,32.80
2022-07-31T08:32:50.055Z,32.30
2022-07-31T08:39:50.794Z,31.60
2022-07-31T08:42:37.664Z,31.50
2022-07-31T08:45:25.265Z,31.50
2022-07-31T08:48:26.071Z,31.40
2022-07-31T08:51:16.799Z,31.10
2022-07-31T08:54:24.108Z,31.50
2022-07-31T08:57:13.059Z,32.10
2022-07-31T09:04:01.914Z,31.60
2022-07-31T09:06:50.393Z,31.50
2022-07-31T09:09:51.148Z,32.00
2022-07-31T09:12:40.114Z,31.90
2022-07-31T09:15:29.904Z,32.50
2022-07-31T09:18:19.747Z,33.20
2022-07-31T09:21:08.763Z,34.10
2022-07-31T09:23:56.835Z,34.70
2022-07-31T09:26:44.418Z,35.10
2022-07-31T09:29:35.888Z,35.00
2022-07-31T09:32:23.869Z,34.70
2022-07-31T09:35:27.955Z,34.60
2022-07-31T09:38:15.001Z,34.50
2022-07-31T09:42:01.195Z,34.70
2022-07-31T09:44:41.159Z,34.80
2022-07-31T09:47:30.045Z,34.90
2022-07-31T09:50:24.979Z,35.10
2022-07-31T09:53:11.785Z,35.20
2022-07-31T09:56:08.171Z,35.10
2022-07-31T09:58:56.187Z,35.30
2022-07-31T10:01:44.141Z,35.20
2022-07-31T10:04:31.078Z,34.20
2022-07-31T10:07:32.026Z,33.40
2022-07-31T10:10:26.889Z,32.70
2022-07-31T10:13:21.609Z,32.50
2022-07-31T10:16:10.332Z,33.30
2022-07-31T10:19:01.988Z,33.00
2022-07-31T10:22:27.430Z,32.70
2022-07-31T10:25:21.573Z,32.20
2022-07-31T10:28:08.725Z,31.90
2022-07-31T10:30:55.799Z,31.80
2022-07-31T10:33:45.742Z,32.60
2022-07-31T10:36:56.042Z,33.30
2022-07-31T10:40:02.538Z,34.00
2022-07-31T10:43:03.196Z,34.60
2022-07-31T10:45:51.425Z,35.40
2022-07-31T10:49:11.626Z,35.60
2022-07-31T10:52:38.303Z,35.90
2022-07-31T10:55:37.072Z,35.70
2022-07-31T10:58:49.146Z,35.40
2022-07-31T11:02:04.880Z,35.80
2022-07-31T11:05:23.720Z,35.60
2022-07-31T11:08:28.987Z,35.40
2022-07-31T11:11:32.942Z,34.80
2022-07-31T11:14:39.670Z,34.60
2022-07-31T11:18:23.680Z,34.60
2022-07-31T11:21:38.610Z,34.40
2022-07-31T11:24:26.172Z,34.60
2022-07-31T11:27:13.146Z,34.60
2022-07-31T11:30:12.464Z,34.70
2022-07-31T11:33:00.178Z,34.60
2022-07-31T11:35:47.161Z,34.10
2022-07-31T11:38:35.053Z,33.40
2022-07-31T11:41:22.935Z,32.70
2022-07-31T11:44:10.149Z,32.60
2022-07-31T11:46:57.042Z,32.80
2022-07-31T11:49:49.090Z,32.40
2022-07-31T11:52:37.455Z,32.60
2022-07-31T11:55:25.753Z,33.20
2022-07-31T11:58:12.496Z,33.50
2022-07-31T12:01:00.953Z,33.80
2022-07-31T12:03:51.025Z,34.30
2022-07-31T12:06:38.435Z,34.00
2022-07-31T12:10:00.754Z,34.00
2022-07-31T12:12:33.920Z,34.10
2022-07-31T12:15:22.562Z,34.20
2022-07-31T12:18:09.526Z,34.10
2022-07-31T12:20:57.973Z,33.90
2022-07-31T12:23:47.246Z,33.70
2022-07-31T12:26:34.450Z,34.00
2022-07-31T12:29:32.343Z,34.10
2022-07-31T12:32:25.655Z,34.10
2022-07-31T12:35:12.233Z,33.80
2022-07-31T12:37:58.973Z,33.80
2022-07-31T12:40:48.185Z,33.90
2022-07-31T12:43:34.873Z,34.00
2022-07-31T12:46:37.608Z,34.10
2022-07-31T12:49:24.348Z,33.90
2022-07-31T12:52:11.569Z,33.70
2022-07-31T12:54:58.429Z,33.60
2022-07-31T12:57:51.853Z,33.20
2022-07-31T13:00:40.154Z,33.20
2022-07-31T13:03:39.065Z,33.10
2022-07-31T13:06:33.207Z,33.00
2022-07-31T13:09:20.113Z,32.90
2022-07-31T13:12:07.877Z,32.80
2022-07-31T13:14:54.762Z,32.80
2022-07-31T13:17:43.806Z,32.80
2022-07-31T13:20:36.454Z,32.70
2022-07-31T13:23:23.310Z,32.70
2022-07-31T13:26:10.302Z,32.60
2022-07-31T13:28:57.225Z,32.30
2022-07-31T13:31:43.888Z,32.10
2022-07-31T13:34:30.290Z,32.00
2022-07-31T13:37:18.609Z,31.80
2022-07-31T13:40:05.878Z,31.90
2022-07-31T13:42:52.473Z,31.90
2022-07-31T13:45:39.913Z,31.90
2022-07-31T13:48:26.941Z,31.80
2022-07-31T13:51:14.124Z,32.00
2022-07-31T13:54:02.251Z,31.90
2022-07-31T13:56:49.055Z,31.80
2022-07-31T13:59:36.090Z,31.70
2022-07-31T14:02:23.144Z,31.60
2022-07-31T14:05:11.034Z,31.70
2022-07-31T14:08:29.771Z,31.80
2022-07-31T14:11:13.651Z,31.80
2022-07-31T14:14:01.979Z,31.70
2022-07-31T14:16:48.863Z,31.60
2022-07-31T14:19:44.069Z,31.50
2022-07-31T14:22:31.406Z,31.50
2022-07-31T14:25:18.142Z,31.70
2022-07-31T14:28:06.981Z,31.60
2022-07-31T14:30:53.707Z,31.50
2022-07-31T14:33:40.185Z,31.60
2022-07-31T14:36:28.030Z,31.60
2022-07-31T14:39:14.608Z,31.60
2022-07-31T14:42:00.889Z,31.60
2022-07-31T14:44:49.096Z,31.50
2022-07-31T14:47:36.393Z,31.50
2022-07-31T14:50:23.573Z,31.40
2022-07-31T14:53:11.386Z,31.50
2022-07-31T14:56:03.933Z,31.50
2022-07-31T14:58:57.546Z,31.50
2022-07-31T15:01:46.536Z,31.40
2022-07-31T15:04:33.612Z,31.30
2022-07-31T15:07:40.885Z,31.20
2022-07-31T15:10:27.506Z,31.30
2022-07-31T15:13:14.102Z,31.30
2022-07-31T15:16:41.070Z,31.30
2022-07-31T15:19:29.329Z,31.20
2022-07-31T15:22:19.018Z,31.20
2022-07-31T15:25:06.865Z,31.30
2022-07-31T15:27:53.285Z,31.40
2022-07-31T15:30:40.246Z,31.30
2022-07-31T15:33:27.209Z,31.20
2022-07-31T15:36:15.448Z,31.30
2022-07-31T15:39:02.138Z,31.40
2022-07-31T15:41:49.122Z,31.60
2022-07-31T15:44:36.038Z,31.50
2022-07-31T15:47:22.867Z,31.50
2022-07-31T15:50:11.533Z,31.50
2022-07-31T15:52:59.381Z,31.60
2022-07-31T15:55:46.005Z,31.60
2022-07-31T15:58:32.914Z,31.50
2022-07-31T16:01:19.490Z,31.60
2022-07-31T16:04:16.377Z,31.70
2022-07-31T16:08:32.163Z,31.60
2022-07-31T16:10:15.536Z,31.60
2022-07-31T16:13:03.145Z,31.60
2022-07-31T16:20:38.861Z,31.70
2022-07-31T16:23:27.898Z,31.80
2022-07-31T16:26:15.869Z,31.70
2022-07-31T16:29:02.410Z,31.60
2022-07-31T16:31:50.842Z,31.60
2022-07-31T16:34:37.685Z,31.60
2022-07-31T16:37:50.118Z,31.50
2022-07-31T16:40:34.673Z,31.40
2022-07-31T16:43:47.930Z,31.40
2022-07-31T16:46:30.750Z,31.20
2022-07-31T16:49:35.407Z,31.20
2022-07-31T16:52:33.541Z,31.10
2022-07-31T16:55:21.157Z,31.00
2022-07-31T16:58:29.213Z,31.00
2022-07-31T17:01:58.849Z,30.90
2022-07-31T17:04:32.332Z,30.90
2022-07-31T17:07:18.756Z,30.90
2022-07-31T17:10:05.605Z,30.80
2022-07-31T17:12:53.196Z,30.80
2022-07-31T17:15:44.987Z,30.70
2022-07-31T17:19:08.042Z,30.70
2022-07-31T17:21:55.291Z,30.60
2022-07-31T17:24:42.761Z,30.50
2022-07-31T17:27:29.570Z,30.50
2022-07-31T17:30:17.274Z,30.50
2022-07-31T17:33:05.681Z,30.50
2022-07-31T17:35:52.483Z,30.40
2022-07-31T17:38:42.510Z,30.40
2022-07-31T17:41:29.982Z,30.30
2022-07-31T17:44:16.951Z,30.20
2022-07-31T17:47:05.255Z,30.20
2022-07-31T17:49:53.793Z,30.20
2022-07-31T17:53:13.058Z,30.20
2022-07-31T17:56:19.987Z,30.20
2022-07-31T17:59:09.877Z,30.10
2022-07-31T18:02:00.835Z,30.00
2022-07-31T18:04:47.967Z,29.90
2022-07-31T18:07:37.668Z,29.90
2022-07-31T18:10:51.783Z,29.90
2022-07-31T18:13:31.080Z,29.80
2022-07-31T18:16:44.064Z,29.80
2022-07-31T18:19:30.807Z,29.70
2022-07-31T18:22:26.674Z,29.70
2022-07-31T18:25:23.511Z,29.70
2022-07-31T18:28:10.384Z,29.60
2022-07-31T18:30:56.777Z,29.50
2022-07-31T18:33:43.772Z,29.50
2022-07-31T18:36:30.173Z,29.40
2022-07-31T18:39:16.861Z,29.30
2022-07-31T18:42:05.773Z,29.30
2022-07-31T18:44:52.870Z,29.30
2022-07-31T18:47:49.550Z,29.20
2022-07-31T18:51:01.037Z,29.10
2022-07-31T18:53:42.871Z,29.10
2022-07-31T19:01:09.277Z,28.90
2022-07-31T19:03:56.262Z,28.80
2022-07-31T19:06:44.330Z,28.70
2022-07-31T19:09:30.843Z,28.60
2022-07-31T19:12:17.835Z,28.50
2022-07-31T19:18:41.058Z,28.50
2022-07-31T19:21:42.086Z,28.40
2022-07-31T19:24:29.693Z,28.40
2022-07-31T19:27:16.669Z,28.30
2022-07-31T19:30:03.681Z,28.20
2022-07-31T19:32:50.220Z,28.20
2022-07-31T19:36:06.408Z,28.10
2022-07-31T19:39:42.679Z,28.00
2022-07-31T19:42:30.287Z,27.90
2022-07-31T19:45:27.086Z,27.90
2022-07-31T19:48:14.093Z,27.90
2022-07-31T19:51:02.596Z,27.80
2022-07-31T19:53:49.438Z,27.80
2022-07-31T19:56:36.487Z,27.70
2022-07-31T19:59:23.182Z,27.70
2022-07-31T20:02:14.005Z,27.60
2022-07-31T20:05:03.356Z,27.60
2022-07-31T20:07:51.728Z,27.60
2022-07-31T20:10:38.567Z,27.50
2022-07-31T20:13:25.156Z,27.50
2022-07-31T20:16:11.598Z,27.40
2022-07-31T20:18:58.497Z,27.30
2022-07-31T20:21:45.514Z,27.30
2022-07-31T20:24:33.832Z,27.30
2022-07-31T20:27:20.507Z,27.20
2022-07-31T20:30:08.924Z,27.20
2022-07-31T20:32:55.825Z,27.10
2022-07-31T20:35:48.753Z,27.10
2022-07-31T20:38:36.913Z,27.10
2022-07-31T20:41:25.265Z,27.00
2022-07-31T20:44:12.188Z,26.90
2022-07-31T20:46:58.670Z,26.80
2022-07-31T20:49:45.621Z,26.80
2022-07-31T20:52:32.453Z,26.80
2022-07-31T20:55:19.147Z,26.70
2022-07-31T20:58:07.069Z,26.70
2022-07-31T21:00:54.766Z,26.60
2022-07-31T21:03:41.255Z,26.50
2022-07-31T21:06:43.298Z,26.50
2022-07-31T21:09:31.538Z,26.50
2022-07-31T21:12:18.095Z,26.40
2022-07-31T21:15:08.174Z,26.30
2022-07-31T21:18:15.489Z,26.30
2022-07-31T21:21:02.446Z,26.20
2022-07-31T21:23:51.381Z,26.10
2022-07-31T21:26:39.592Z,26.10
2022-07-31T21:29:26.797Z,26.00
2022-07-31T21:36:55.562Z,26.00
2022-07-31T21:39:42.756Z,25.90
2022-07-31T21:42:29.759Z,25.90
2022-07-31T21:45:17.340Z,25.80
2022-07-31T21:48:09.958Z,25.80
2022-07-31T21:50:56.957Z,25.70
2022-07-31T21:58:17.024Z,25.60
2022-07-31T22:01:03.872Z,25.50
2022-07-31T22:03:50.846Z,25.50
2022-07-31T22:11:05.522Z,25.50
2022-07-31T22:14:02.945Z,25.50
2022-07-31T22:16:49.848Z,25.40
2022-07-31T22:19:37.754Z,25.40
2022-07-31T22:22:32.356Z,25.40
2022-07-31T22:25:19.098Z,25.40
2022-07-31T22:28:07.161Z,25.40
2022-07-31T22:30:55.669Z,25.40
2022-07-31T22:33:42.239Z,25.40
2022-07-31T22:36:29.468Z,25.40
2022-07-31T22:39:17.173Z,25.40
2022-07-31T22:42:03.812Z,25.40
2022-07-31T22:44:50.917Z,25.40
2022-07-31T22:47:40.180Z,25.40
2022-07-31T22:50:26.908Z,25.40
2022-07-31T22:53:14.490Z,25.40
2022-07-31T22:56:01.373Z,25.30
2022-07-31T22:58:47.934Z,25.20
2022-07-31T23:01:34.318Z,25.20
2022-07-31T23:04:21.955Z,25.20
2022-07-31T23:07:08.393Z,25.10
2022-07-31T23:09:55.126Z,25.10
2022-07-31T23:12:41.449Z,25.10
2022-07-31T23:15:28.471Z,25.10
2022-07-31T23:18:15.488Z,25.20
2022-07-31T23:21:03.102Z,25.20
2022-07-31T23:23:55.259Z,25.20
2022-07-31T23:26:42.033Z,25.10
2022-07-31T23:29:28.437Z,25.00
2022-07-31T23:32:14.766Z,25.00
2022-07-31T23:35:01.234Z,24.90
2022-07-31T23:37:49.086Z,24.90
2022-07-31T23:40:35.549Z,24.80
2022-07-31T23:43:21.204Z,24.70
2022-07-31T23:46:08.242Z,24.70
2022-07-31T23:48:54.890Z,24.70
2022-07-31T23:51:42.248Z,24.70
2022-07-31T23:54:30.033Z,24.60
2022-07-31T23:57:16.622Z,24.60
